Time;durP1;ratioP1;P1;durP2;ratioP2;P2;SDS_P1;SDS_P2;PMS_P1;PMS_P2;Temp;Humidity;BMP_temperature;BMP_pressure;BME280_temperature;BME280_humidity;BME280_pressure;Samples;Min_cycle;Max_cycle;Signal;HPM_P1;HPM_P2
2021/06/23 00:02:17;;;;;;;10.93;3.70;;;;;;;21.89;100.00;100491.09;1701459;82;20987;-44
2021/06/23 00:04:44;;;;;;;8.25;3.30;;;;;;;21.87;100.00;100494.47;1701370;82;20964;-46
2021/06/23 00:07:10;;;;;;;8.48;3.35;;;;;;;21.86;100.00;100494.66;1702536;82;20955;-41
2021/06/23 00:09:37;;;;;;;9.23;3.98;;;;;;;21.83;100.00;100498.03;1702162;82;21020;-42
2021/06/23 00:12:05;;;;;;;9.13;3.70;;;;;;;21.80;100.00;100491.58;1698862;82;21594;-42
2021/06/23 00:14:32;;;;;;;8.90;3.52;;;;;;;21.77;100.00;100497.81;1698541;82;21013;-42
2021/06/23 00:16:59;;;;;;;8.58;3.90;;;;;;;21.75;100.00;100499.36;1698571;82;20979;-42
2021/06/23 00:19:26;;;;;;;11.22;4.12;;;;;;;21.75;100.00;100509.37;1703693;82;21531;-41
2021/06/23 00:21:52;;;;;;;10.72;3.80;;;;;;;21.71;100.00;100503.39;1697988;82;21292;-41
2021/06/23 00:24:18;;;;;;;8.93;3.65;;;;;;;21.73;100.00;100499.17;1702430;82;20960;-43
2021/06/23 00:26:45;;;;;;;7.00;3.58;;;;;;;21.77;100.00;100500.05;1698704;82;21908;-40
2021/06/23 00:29:12;;;;;;;9.85;4.67;;;;;;;21.79;100.00;100495.28;1699421;82;20944;-43
2021/06/23 00:31:39;;;;;;;9.50;3.80;;;;;;;21.81;100.00;100491.06;1704862;82;21552;-45
2021/06/23 00:34:06;;;;;;;8.95;3.47;;;;;;;21.82;100.00;100486.84;1701190;82;20966;-42
2021/06/23 00:36:32;;;;;;;9.10;3.95;;;;;;;21.83;100.00;100490.41;1705097;82;21063;-41
2021/06/23 00:38:59;;;;;;;10.35;4.05;;;;;;;21.80;100.00;100486.16;1705544;82;21447;-40
2021/06/23 00:41:26;;;;;;;8.55;3.45;;;;;;;21.77;100.00;100486.97;1705240;82;21012;-40
2021/06/23 00:43:53;;;;;;;7.50;3.47;;;;;;;21.72;100.00;100488.84;1710946;82;20968;-41
2021/06/23 00:46:20;;;;;;;10.82;3.80;;;;;;;21.70;100.00;100492.72;1705087;82;21527;-41
2021/06/23 00:48:53;;;;;;;9.40;3.45;;;;;;;21.67;100.00;100489.83;1705497;82;20935;-42
2021/06/23 00:51:20;;;;;;;7.17;3.33;;;;;;;21.64;100.00;100487.41;1688330;82;20968;-45
2021/06/23 00:53:56;;;;;;;14.47;4.47;;;;;;;21.65;100.00;100493.72;1703299;82;20942;-44
2021/06/23 00:56:33;;;;;;;8.05;5.03;;;;;;;21.64;100.00;100496.06;1686003;83;20972;-44
2021/06/23 00:59:00;;;;;;;6.97;4.87;;;;;;;21.65;100.00;100497.78;1702522;82;20939;-44
2021/06/23 01:01:29;;;;;;;9.18;3.92;;;;;;;21.66;100.00;100493.53;1704238;82;21504;-44
2021/06/23 01:03:55;;;;;;;10.00;3.75;;;;;;;21.65;100.00;100487.78;1706599;82;21407;-44
2021/06/23 01:06:22;;;;;;;7.53;4.00;;;;;;;21.64;100.00;100491.99;1708899;82;21001;-44
2021/06/23 01:08:49;;;;;;;10.13;3.55;;;;;;;21.57;100.00;100494.48;1698468;82;21349;-44
2021/06/23 01:11:16;;;;;;;6.62;3.50;;;;;;;21.52;100.00;100496.83;1705932;82;21040;-44
2021/06/23 01:13:58;;;;;;;7.62;3.77;;;;;;;21.50;100.00;100497.02;1699727;82;20968;-44
2021/06/23 01:16:28;;;;;;;9.25;4.20;;;;;;;21.49;100.00;100501.23;1708847;82;21041;-49
2021/06/23 01:18:57;;;;;;;8.15;3.92;;;;;;;21.45;100.00;100489.86;1705474;82;20953;-48
2021/06/23 01:21:23;;;;;;;9.80;3.37;;;;;;;21.41;100.00;100489.83;1706889;82;21483;-45
2021/06/23 01:23:50;;;;;;;4.78;3.85;;;;;;;21.39;100.00;100485.06;1697435;82;21028;-55
2021/06/23 01:26:17;;;;;;;9.98;2.90;;;;;;;21.38;100.00;100486.05;1707961;82;20944;-51
2021/06/23 01:28:47;;;;;;;11.95;4.50;;;;;;;21.34;100.00;100489.59;1705842;82;20983;-53
2021/06/23 01:31:19;;;;;;;7.15;3.25;;;;;;;21.33;100.00;100487.87;1704011;82;21031;-47
2021/06/23 01:33:48;;;;;;;6.45;3.05;;;;;;;21.37;100.00;100494.70;1696119;82;21000;-46
2021/06/23 01:36:17;;;;;;;7.33;3.85;;;;;;;21.42;100.00;100490.19;1707041;82;21328;-54
2021/06/23 01:38:44;;;;;;;9.70;3.77;;;;;;;21.46;100.00;100494.27;1686816;83;20952;-51
2021/06/23 01:41:12;;;;;;;7.83;3.22;;;;;;;21.49;100.00;100492.58;1711642;82;20976;-51
2021/06/23 01:43:38;;;;;;;11.05;4.30;;;;;;;21.52;100.00;100497.70;1678619;82;20993;-43
2021/06/23 01:46:07;;;;;;;7.72;3.65;;;;;;;21.53;100.00;100491.77;1695885;82;21004;-47
2021/06/23 01:48:34;;;;;;;10.65;4.28;;;;;;;21.51;100.00;100495.14;1703544;82;20925;-43
2021/06/23 01:51:02;;;;;;;6.90;3.87;;;;;;;21.48;100.00;100492.25;1696736;82;21000;-46
2021/06/23 01:53:33;;;;;;;8.95;3.58;;;;;;;21.46;100.00;100491.55;1697759;82;21048;-47
2021/06/23 01:56:02;;;;;;;;;;;;;;;21.46;100.00;100489.34;1698558;82;21533;-44
2021/06/23 01:58:30;;;;;;;7.83;3.75;;;;;;;21.47;100.00;100484.26;1705933;82;20151;-42
2021/06/23 02:01:14;;;;;;;7.58;3.05;;;;;;;21.42;100.00;100483.41;1698002;82;20952;-42
2021/06/23 02:03:59;;;;;;;8.20;3.40;;;;;;;21.40;100.00;100481.36;1687404;83;21041;-43
2021/06/23 02:06:56;;;;;;;6.80;3.65;;;;;;;21.36;100.00;100478.06;1692277;83;20971;-44
2021/06/23 02:10:12;;;;;;;7.65;3.92;;;;;;;21.31;100.00;100479.05;1706145;82;20995;-44
2021/06/23 02:13:42;;;;;;;6.03;3.72;;;;;;;21.30;100.00;100478.71;1701737;82;21018;-50
2021/06/23 02:16:29;;;;;;;5.22;2.90;;;;;;;21.29;100.00;100474.79;1701268;82;21349;-43
2021/06/23 02:19:04;;;;;;;8.50;3.33;;;;;;;21.27;100.00;100465.96;1696728;82;21044;-43
2021/06/23 02:21:44;;;;;;;7.20;3.42;;;;;;;21.18;100.00;100465.91;1596946;87;21020;-42
2021/06/23 02:24:12;;;;;;;6.87;3.08;;;;;;;21.12;100.00;100471.98;1619569;86;21068;-42
2021/06/23 02:26:41;;;;;;;6.67;3.75;;;;;;;21.09;100.00;100479.56;1654679;84;21023;-42
2021/06/23 02:29:08;;;;;;;8.03;3.52;;;;;;;21.11;100.00;100481.11;1658723;84;21039;-42
2021/06/23 02:31:38;;;;;;;7.12;3.08;;;;;;;21.14;100.00;100478.11;1657152;84;21490;-43
2021/06/23 02:34:07;;;;;;;6.90;3.22;;;;;;;21.15;100.00;100476.23;1655798;84;20968;-44
2021/06/23 02:36:37;;;;;;;7.55;3.33;;;;;;;21.12;100.00;100476.05;1652969;84;20968;-47
2021/06/23 02:39:05;;;;;;;11.28;3.25;;;;;;;21.11;100.00;100470.77;1650165;84;21927;-46
2021/06/23 02:41:33;;;;;;;5.72;3.08;;;;;;;21.05;100.00;100474.97;1640344;85;21003;-46
2021/06/23 02:44:00;;;;;;;6.45;2.50;;;;;;;21.04;100.00;100479.19;1639811;85;21042;-41
2021/06/23 02:46:29;;;;;;;6.22;3.55;;;;;;;21.07;100.00;100482.45;1622263;86;21058;-41
2021/06/23 02:48:59;;;;;;;8.00;3.08;;;;;;;21.09;100.00;100485.86;1622129;86;21147;-38
2021/06/23 02:51:33;;;;;;;6.22;3.45;;;;;;;21.08;100.00;100482.78;1621094;86;21042;-46
2021/06/23 02:54:02;;;;;;;6.70;3.60;;;;;;;21.12;100.00;100476.56;1620522;86;20985;-50
2021/06/23 02:56:36;;;;;;;4.35;3.27;;;;;;;21.16;100.00;100477.92;1623337;85;20951;-48
2021/06/23 02:59:03;;;;;;;8.93;2.98;;;;;;;21.20;100.00;100476.61;1672312;83;21010;-49
2021/06/23 03:01:30;;;;;;;7.10;3.22;;;;;;;21.26;100.00;100485.45;1670575;83;20994;-48
2021/06/23 03:03:58;;;;;;;8.30;3.10;;;;;;;21.31;100.00;100493.95;1665163;84;20996;-44
2021/06/23 03:06:26;;;;;;;6.60;2.80;;;;;;;21.38;100.00;100500.48;1670765;83;20938;-43
2021/06/23 03:08:54;;;;;;;5.25;3.22;;;;;;;21.41;100.00;100499.31;1671193;83;21537;-45
2021/06/23 03:11:22;;;;;;;15.78;8.05;;;;;;;21.46;100.00;100501.04;1669356;83;21348;-45
2021/06/23 03:13:51;;;;;;;6.67;3.35;;;;;;;21.49;100.00;100503.94;1655363;83;21501;-45
2021/06/23 03:16:20;;;;;;;6.53;3.45;;;;;;;21.45;100.00;100504.78;1667541;83;20991;-45
2021/06/23 03:18:46;;;;;;;6.50;2.72;;;;;;;21.42;100.00;100500.16;1668984;83;20996;-52
2021/06/23 03:21:13;;;;;;;6.70;3.27;;;;;;;21.34;100.00;100499.09;1670216;83;20975;-49
2021/06/23 03:23:47;;;;;;;4.95;2.42;;;;;;;21.29;100.00;100494.65;1671047;83;21014;-51
2021/06/23 03:26:14;;;;;;;5.83;3.17;;;;;;;21.26;100.00;100497.66;1668567;83;20975;-49
2021/06/23 03:28:42;;;;;;;8.85;4.20;;;;;;;21.24;100.00;100487.97;1672820;83;21023;-47
2021/06/23 03:31:08;;;;;;;9.55;3.12;;;;;;;21.25;100.00;100478.85;1669522;83;21016;-50
2021/06/23 03:33:45;;;;;;;7.60;3.70;;;;;;;21.29;100.00;100474.31;1673593;83;21019;-46
2021/06/23 03:36:14;;;;;;;5.85;2.72;;;;;;;21.35;100.00;100474.17;1674568;84;20923;-45
2021/06/23 03:38:42;;;;;;;8.98;4.03;;;;;;;21.44;100.00;100467.80;1668195;83;20979;-53
2021/06/23 03:41:11;;;;;;;9.13;3.45;;;;;;;21.51;100.00;100468.86;1642818;85;21533;-54
2021/06/23 03:43:38;;;;;;;7.78;2.90;;;;;;;21.59;100.00;100472.97;1642436;85;21565;-48
2021/06/23 03:46:04;;;;;;;9.68;3.27;;;;;;;21.65;100.00;100472.01;1701914;82;20984;-54
2021/06/23 03:48:32;;;;;;;6.85;3.72;;;;;;;21.71;100.00;100474.91;1705918;82;21510;-46
2021/06/23 03:51:03;;;;;;;7.45;2.52;;;;;;;21.78;100.00;100476.48;1709407;83;20986;-48
2021/06/23 03:53:32;;;;;;;9.43;4.17;;;;;;;21.82;100.00;100473.28;1705759;82;21451;-48
2021/06/23 03:56:07;;;;;;;7.80;3.17;;;;;;;21.87;100.00;100471.41;1702879;82;20987;-44
2021/06/23 03:58:34;;;;;;;9.30;3.08;;;;;;;21.92;100.00;100472.28;1705500;82;20952;-50
2021/06/23 04:01:00;;;;;;;9.38;3.10;;;;;;;21.99;100.00;100465.19;1683473;82;21008;-52
2021/06/23 04:03:29;;;;;;;6.40;3.27;;;;;;;22.06;100.00;100462.16;1703603;82;20975;-46
2021/06/23 04:06:15;;;;;;;9.85;4.00;;;;;;;22.12;100.00;100466.92;1702347;82;21476;-41
2021/06/23 04:08:43;;;;;;;7.17;2.98;;;;;;;22.17;100.00;100466.43;1705956;82;20999;-45
2021/06/23 04:11:11;;;;;;;5.50;3.00;;;;;;;22.22;100.00;100462.23;1706091;82;21092;-46
2021/06/23 04:13:38;;;;;;;9.38;3.00;;;;;;;22.30;100.00;100459.19;1701038;82;21362;-46
2021/06/23 04:16:06;;;;;;;8.85;3.30;;;;;;;22.35;100.00;100460.42;1700946;82;21016;-48
2021/06/23 04:19:08;;;;;;;8.18;2.72;;;;;;;22.41;99.53;100457.02;1702759;82;21008;-51
2021/06/23 04:21:44;;;;;;;7.40;3.67;;;;;;;22.46;98.55;100451.09;1572204;90;21012;-47
2021/06/23 04:24:12;;;;;;;7.87;2.30;;;;;;;22.53;98.47;100450.77;1568218;89;21095;-46
2021/06/23 04:26:41;;;;;;;7.00;3.00;;;;;;;22.60;98.16;100455.88;1569677;89;21037;-45
2021/06/23 04:29:09;;;;;;;8.75;3.72;;;;;;;22.65;96.85;100456.70;1569578;89;21051;-46
2021/06/23 04:31:38;;;;;;;9.18;3.55;;;;;;;22.72;96.35;100463.68;1570582;89;21545;-48
2021/06/23 04:34:05;;;;;;;9.13;2.60;;;;;;;22.78;96.00;100472.50;1549986;90;21049;-43
2021/06/23 04:36:32;;;;;;;7.92;3.20;;;;;;;22.84;96.00;100481.36;1571276;90;21035;-40
2021/06/23 04:38:59;;;;;;;10.30;4.17;;;;;;;22.91;97.16;100490.53;1553810;90;21045;-44
2021/06/23 04:41:26;;;;;;;5.50;2.95;;;;;;;22.98;97.58;100490.72;1575834;89;21007;-40
2021/06/23 04:43:53;;;;;;;8.85;3.12;;;;;;;23.04;99.17;100467.79;1571106;89;21399;-42
2021/06/23 04:46:20;;;;;;;7.50;3.17;;;;;;;23.08;99.29;100469.16;1571857;89;21000;-40
2021/06/23 04:48:47;;;;;;;7.80;3.25;;;;;;;23.11;99.11;100473.40;1572509;89;21571;-41
2021/06/23 04:51:17;;;;;;;5.95;3.47;;;;;;;23.16;96.58;100476.94;1568098;89;21055;-42
2021/06/23 04:53:44;;;;;;;8.15;4.00;;;;;;;23.21;95.20;100478.63;1571629;89;21015;-43
2021/06/23 04:56:10;;;;;;;5.22;3.47;;;;;;;23.26;94.61;100481.72;1574592;90;21046;-40
2021/06/23 04:58:39;;;;;;;9.23;3.37;;;;;;;23.30;94.89;100477.09;1578432;88;20996;-41
2021/06/23 05:01:07;;;;;;;9.08;3.33;;;;;;;23.35;95.14;100476.58;1596700;88;21535;-41
2021/06/23 05:03:36;;;;;;;16.00;4.17;;;;;;;23.41;94.66;100470.47;1594005;88;20976;-41
2021/06/23 05:06:02;;;;;;;6.85;3.42;;;;;;;23.47;92.96;100471.12;1602727;88;20996;-42
2021/06/23 05:08:29;;;;;;;7.10;3.30;;;;;;;23.52;93.65;100466.52;1598639;88;21003;-43
2021/06/23 05:10:56;;;;;;;6.42;3.58;;;;;;;23.57;93.93;100461.41;1592365;88;21109;-42
2021/06/23 05:13:23;;;;;;;7.05;2.98;;;;;;;23.62;94.47;100461.72;1595688;88;21551;-42
2021/06/23 05:15:51;;;;;;;5.58;3.50;;;;;;;23.67;94.05;100455.77;1598864;88;20945;-41
2021/06/23 05:18:18;;;;;;;7.37;3.92;;;;;;;23.71;94.06;100455.24;1593600;88;20964;-42
2021/06/23 05:20:45;;;;;;;4.85;2.90;;;;;;;23.76;95.95;100450.64;1602459;88;20962;-40
2021/06/23 05:23:11;;;;;;;6.70;3.25;;;;;;;23.82;96.56;100446.38;1571777;89;20971;-42
2021/06/23 05:25:38;;;;;;;8.20;3.65;;;;;;;23.87;96.33;100442.62;1601407;88;21012;-40
2021/06/23 05:28:05;;;;;;;5.58;3.20;;;;;;;23.91;96.01;100445.30;1601297;88;21010;-40
2021/06/23 05:30:31;;;;;;;5.60;3.10;;;;;;;23.93;96.50;100438.66;1602273;88;21490;-42
2021/06/23 05:32:58;;;;;;;6.53;3.45;;;;;;;23.96;96.66;100435.59;1595569;88;20987;-41
2021/06/23 05:35:25;;;;;;;6.03;3.02;;;;;;;23.99;94.39;100437.12;1596489;88;20962;-42
2021/06/23 05:37:51;;;;;;;5.30;3.42;;;;;;;24.04;94.39;100439.28;1615283;85;21024;-43
2021/06/23 05:40:18;;;;;;;7.60;3.75;;;;;;;24.07;94.09;100439.79;1649117;85;20972;-43
2021/06/23 05:42:45;;;;;;;6.97;2.80;;;;;;;24.12;93.56;100445.55;1645512;85;21043;-42
2021/06/23 05:45:13;;;;;;;6.60;3.00;;;;;;;24.18;93.72;100452.98;1646826;85;20985;-45
2021/06/23 05:47:39;;;;;;;5.08;2.90;;;;;;;24.25;94.24;100450.41;1651339;85;21494;-47
2021/06/23 05:50:07;;;;;;;7.95;2.90;;;;;;;24.31;93.16;100446.95;1653603;85;20966;-49
2021/06/23 05:52:34;;;;;;;4.05;2.67;;;;;;;24.37;92.96;100445.41;1654245;85;21907;-51
2021/06/23 05:55:01;;;;;;;4.90;2.47;;;;;;;24.43;88.75;100436.50;1654088;85;20971;-49
2021/06/23 05:57:28;;;;;;;3.85;2.05;;;;;;;24.52;87.05;100440.03;1703571;82;21011;-45
2021/06/23 05:59:54;;;;;;;4.58;2.75;;;;;;;24.58;84.27;100424.33;1681381;84;20972;-50
2021/06/23 06:02:21;;;;;;;6.50;2.30;;;;;;;24.65;83.05;100423.94;1714207;82;20965;-41
2021/06/23 06:04:47;;;;;;;5.08;2.40;;;;;;;24.72;84.28;100423.55;1717569;82;21001;-42
2021/06/23 06:07:14;;;;;;;10.13;2.77;;;;;;;24.78;81.42;100414.62;1715158;83;20979;-41
2021/06/23 06:09:41;;;;;;;8.38;2.83;;;;;;;24.86;80.49;100406.87;1718227;82;20940;-41
2021/06/23 06:12:09;;;;;;;5.28;2.55;;;;;;;24.95;81.69;100418.58;1712077;82;21019;-41
2021/06/23 06:14:35;;;;;;;8.30;3.27;;;;;;;25.02;81.75;100415.41;1713668;82;20963;-42
2021/06/23 06:17:03;;;;;;;5.00;2.60;;;;;;;25.09;79.13;100417.73;1715232;82;20976;-41
2021/06/23 06:19:29;;;;;;;7.92;2.12;;;;;;;25.15;80.14;100415.64;1714759;82;20988;-40
2021/06/23 06:21:56;;;;;;;8.33;2.72;;;;;;;25.22;80.85;100417.98;1712938;82;20924;-41
2021/06/23 06:24:22;;;;;;;3.65;2.20;;;;;;;25.28;77.13;100416.39;1712225;83;20972;-40
2021/06/23 06:26:49;;;;;;;6.15;3.15;;;;;;;25.34;77.39;100412.90;1707834;83;21691;-41
2021/06/23 06:29:15;;;;;;;6.12;2.40;;;;;;;25.39;77.87;100409.61;1707930;82;20995;-40
2021/06/23 06:31:42;;;;;;;5.80;2.15;;;;;;;25.44;78.77;100408.53;1702817;82;21020;-41
2021/06/23 06:34:08;;;;;;;4.33;2.58;;;;;;;25.52;79.27;100408.95;1705735;82;20964;-40
2021/06/23 06:36:35;;;;;;;6.30;2.40;;;;;;;25.56;79.81;100411.12;1705276;82;20978;-43
2021/06/23 06:39:02;;;;;;;5.60;2.83;;;;;;;25.61;81.71;100410.55;1703895;82;20954;-41
2021/06/23 06:41:29;;;;;;;6.55;3.08;;;;;;;25.66;78.42;100411.67;1707589;83;20996;-41
2021/06/23 06:43:56;;;;;;;5.10;2.50;;;;;;;25.74;79.24;100423.53;1704338;82;20991;-39
2021/06/23 06:46:22;;;;;;;12.13;3.42;;;;;;;25.79;79.40;100424.64;1707618;82;21005;-39
2021/06/23 06:48:49;;;;;;;9.23;3.40;;;;;;;25.85;79.22;100429.36;1711925;82;21452;-40
2021/06/23 06:51:17;;;;;;;5.03;2.85;;;;;;;25.90;79.10;100432.40;1678512;83;20953;-43
2021/06/23 06:53:44;;;;;;;6.12;2.35;;;;;;;25.97;80.01;100426.16;1680035;83;20934;-42
2021/06/23 06:56:11;;;;;;;5.40;2.55;;;;;;;26.02;79.13;100424.53;1713127;82;20956;-43
2021/06/23 06:58:37;;;;;;;4.92;3.08;;;;;;;26.08;77.71;100424.28;1713634;82;20968;-39
2021/06/23 07:01:04;;;;;;;4.00;2.42;;;;;;;26.13;76.04;100414.98;1713290;82;21004;-39
2021/06/23 07:03:51;;;;;;;3.12;2.40;;;;;;;26.20;75.12;100409.61;1708982;82;20991;-43
2021/06/23 07:06:41;;;;;;;10.93;2.77;;;;;;;26.25;75.35;100410.71;1663960;85;21088;-40
2021/06/23 07:09:09;;;;;;;9.75;3.10;;;;;;;26.32;75.01;100410.80;1656890;85;21328;-41
2021/06/23 07:11:35;;;;;;;4.92;2.67;;;;;;;26.36;75.20;100399.81;1658185;85;20979;-40
2021/06/23 07:14:02;;;;;;;5.20;2.67;;;;;;;26.41;74.62;100402.81;1659391;85;21511;-40
2021/06/23 07:16:30;;;;;;;12.03;2.58;;;;;;;26.47;77.04;100417.57;1660363;85;20983;-43
2021/06/23 07:18:57;;;;;;;5.67;3.00;;;;;;;26.53;78.93;100425.01;1657868;85;21320;-44
2021/06/23 07:21:24;;;;;;;5.33;3.02;;;;;;;26.58;79.39;100423.90;1653358;85;21042;-42
2021/06/23 07:23:53;;;;;;;7.85;3.50;;;;;;;26.62;77.78;100414.28;1657281;85;21403;-41
2021/06/23 07:26:20;;;;;;;4.77;2.53;;;;;;;26.66;78.71;100420.19;1656630;85;21031;-41
2021/06/23 07:28:50;;;;;;;2.80;2.25;;;;;;;26.68;78.04;100409.91;1660534;85;20977;-40
2021/06/23 07:31:23;;;;;;;6.33;3.37;;;;;;;26.69;75.80;100411.62;1661334;85;21383;-41
2021/06/23 07:33:58;;;;;;;4.10;2.55;;;;;;;26.69;76.55;100411.09;1659376;85;21015;-43
2021/06/23 07:36:33;;;;;;;6.35;2.80;;;;;;;26.71;75.79;100409.01;1660558;85;21066;-44
2021/06/23 07:38:59;;;;;;;8.65;3.00;;;;;;;26.74;75.19;100403.66;1657864;85;21002;-43
2021/06/23 07:41:26;;;;;;;6.95;3.05;;;;;;;26.78;76.49;100398.63;1661117;85;21522;-43
2021/06/23 07:43:53;;;;;;;6.75;2.65;;;;;;;26.82;75.64;100402.15;1655358;85;20978;-43
2021/06/23 07:46:19;;;;;;;5.72;2.45;;;;;;;26.87;77.77;100402.93;1658174;85;20995;-44
2021/06/23 07:48:50;;;;;;;8.18;2.40;;;;;;;26.90;73.60;100395.69;1658747;84;21019;-44
2021/06/23 07:51:19;;;;;;;5.78;2.87;;;;;;;26.96;74.40;100401.72;1660795;85;21588;-44
2021/06/23 07:56:27;;;;;;;5.67;2.90;;;;;;;27.06;71.70;100400.84;1675937;83;20972;-44
2021/06/23 08:09:47;;;;;;;5.80;3.05;;;;;;;27.16;72.22;100419.65;1711256;82;20958;-49
2021/06/23 08:14:39;;;;;;;7.05;2.70;;;;;;;27.30;75.67;100424.21;1710989;82;21091;-45
2021/06/23 08:17:06;;;;;;;4.37;2.35;;;;;;;27.38;75.16;100425.41;1712920;82;20972;-47
2021/06/23 08:19:33;;;;;;;6.50;3.00;;;;;;;27.50;76.78;100428.44;1712116;82;21520;-47
2021/06/23 08:21:59;;;;;;;8.38;2.50;;;;;;;27.59;77.87;100425.88;1715459;82;21009;-49
2021/06/23 08:24:26;;;;;;;9.83;3.15;;;;;;;27.68;77.91;100423.80;1709730;82;21468;-54
2021/06/23 08:26:53;;;;;;;8.43;3.27;;;;;;;27.76;78.36;100420.04;1709549;82;20983;-43
2021/06/23 08:29:20;;;;;;;5.28;2.47;;;;;;;27.86;76.66;100420.53;1711071;82;20938;-43
2021/06/23 08:31:46;;;;;;;4.08;2.60;;;;;;;27.94;75.77;100423.09;1711682;82;21605;-46
2021/06/23 08:34:13;;;;;;;7.22;3.08;;;;;;;28.03;74.90;100416.39;1709450;82;20912;-42
2021/06/23 08:36:39;;;;;;;5.83;2.30;;;;;;;28.11;72.66;100416.73;1704997;82;20976;-50
2021/06/23 08:39:06;;;;;;;6.03;2.60;;;;;;;28.20;72.36;100430.58;1707122;82;20943;-45
2021/06/23 08:41:35;;;;;;;8.30;3.17;;;;;;;28.28;69.90;100432.28;1713292;82;21029;-48
2021/06/23 08:44:04;;;;;;;5.65;2.42;;;;;;;28.36;69.22;100427.13;1710811;82;21291;-44
2021/06/23 08:46:36;;;;;;;5.87;2.87;;;;;;;28.39;69.37;100427.55;1708886;82;21027;-43
2021/06/23 08:49:07;;;;;;;4.87;2.55;;;;;;;28.41;68.91;100426.82;1708018;82;21450;-42
2021/06/23 08:51:45;;;;;;;4.83;2.55;;;;;;;28.40;68.43;100424.27;1704337;82;21533;-42
2021/06/23 08:54:15;;;;;;;6.78;2.72;;;;;;;28.40;71.16;100422.40;1704177;82;20991;-41
2021/06/23 08:56:43;;;;;;;5.62;2.52;;;;;;;28.42;71.01;100427.66;1706298;82;21440;-42
2021/06/23 08:59:10;;;;;;;3.77;2.65;;;;;;;28.44;69.94;100422.31;1709043;82;21327;-45
2021/06/23 09:01:37;;;;;;;7.95;2.37;;;;;;;28.48;72.12;100419.48;1705437;82;20988;-42
2021/06/23 09:04:13;;;;;;;4.15;2.90;;;;;;;28.51;72.85;100419.59;1709593;82;20971;-46
2021/06/23 09:06:45;;;;;;;7.92;3.40;;;;;;;28.56;72.96;100422.55;1707063;82;21492;-46
2021/06/23 09:09:34;;;;;;;6.17;2.47;;;;;;;28.59;73.15;100422.12;1704240;82;21020;-43
2021/06/23 09:12:08;;;;;;;6.28;2.80;;;;;;;28.63;73.25;100422.58;1706516;82;20941;-46
2021/06/23 09:14:39;;;;;;;2.87;2.20;;;;;;;28.65;73.62;100427.30;1709793;83;21039;-47
2021/06/23 09:17:16;;;;;;;5.35;3.08;;;;;;;28.67;74.78;100437.53;1708499;82;20981;-43
2021/06/23 09:19:49;;;;;;;6.08;2.40;;;;;;;28.68;76.20;100446.09;1631776;85;20963;-44
2021/06/23 09:22:46;;;;;;;7.37;2.85;;;;;;;28.69;76.35;100444.50;1706462;82;20975;-45
2021/06/23 09:25:22;;;;;;;6.25;2.35;;;;;;;28.74;77.36;100441.67;1715523;82;21475;-43
2021/06/23 09:27:55;;;;;;;5.33;2.60;;;;;;;28.79;77.61;100443.25;1710304;83;20976;-42
2021/06/23 09:30:25;;;;;;;3.90;2.20;;;;;;;28.85;79.70;100459.73;1706468;82;20977;-46
2021/06/23 09:33:13;;;;;;;6.92;2.40;;;;;;;28.94;74.93;100456.23;1707504;83;21527;-46
2021/06/23 09:35:43;;;;;;;3.90;2.27;;;;;;;29.01;69.71;100455.72;1706115;82;20963;-45
2021/06/23 09:38:41;;;;;;;4.40;2.37;;;;;;;29.12;70.24;100455.62;1704588;82;21287;-47
2021/06/23 09:41:33;;;;;;;14.93;3.08;;;;;;;29.20;70.20;100454.03;1713010;83;20944;-46
2021/06/23 09:44:07;;;;;;;9.20;2.60;;;;;;;29.29;68.90;100453.30;1704706;82;21003;-45
2021/06/23 09:46:42;;;;;;;7.42;2.75;;;;;;;29.38;68.29;100448.41;1701323;82;21004;-45
2021/06/23 09:49:23;;;;;;;6.75;2.02;;;;;;;29.44;66.04;100454.44;1688267;83;21460;-45
2021/06/23 09:51:52;;;;;;;9.95;2.80;;;;;;;29.49;65.02;100451.36;1702088;82;20975;-45
2021/06/23 09:54:24;;;;;;;3.22;2.75;;;;;;;29.53;65.07;100451.25;1702684;83;21019;-45
2021/06/23 09:56:50;;;;;;;4.55;2.70;;;;;;;29.57;66.52;100450.82;1699619;83;20929;-47
2021/06/23 09:59:40;;;;;;;6.33;3.42;;;;;;;29.60;64.54;100456.70;1705573;82;21010;-46
2021/06/23 10:02:34;;;;;;;4.80;2.50;;;;;;;29.65;64.26;100459.69;1698579;82;20999;-45
2021/06/23 10:05:26;;;;;;;4.42;1.98;;;;;;;29.71;61.10;100457.47;1699903;82;20976;-44
2021/06/23 10:07:53;;;;;;;5.62;2.10;;;;;;;29.79;62.09;100463.76;1704805;82;20995;-42
2021/06/23 10:10:23;;;;;;;5.60;1.80;;;;;;;29.84;62.21;100462.07;1703788;82;20964;-44
2021/06/23 10:12:53;;;;;;;10.05;2.80;;;;;;;29.87;62.43;100458.05;1698814;82;20929;-46
2021/06/23 10:15:21;;;;;;;6.65;2.22;;;;;;;29.90;62.42;100453.48;1705408;82;21080;-41
2021/06/23 10:17:48;;;;;;;4.33;2.27;;;;;;;29.94;61.80;100447.88;1701079;82;21335;-43
2021/06/23 10:20:16;;;;;;;4.25;2.35;;;;;;;29.98;62.40;100449.95;1699025;82;21782;-43
2021/06/23 10:22:45;;;;;;;6.55;2.70;;;;;;;30.02;62.69;100446.79;1697297;82;21419;-42
2021/06/23 10:25:15;;;;;;;5.92;2.60;;;;;;;30.05;60.16;100436.19;1705050;82;20945;-42
2021/06/23 10:27:49;;;;;;;7.37;2.58;;;;;;;30.10;62.70;100441.88;1703906;83;20964;-43
2021/06/23 10:30:16;;;;;;;6.65;2.33;;;;;;;30.15;63.27;100434.34;1693876;82;21502;-43
2021/06/23 10:32:43;;;;;;;6.90;3.12;;;;;;;30.21;61.69;100433.45;1700355;82;20944;-48
2021/06/23 10:35:10;;;;;;;43.75;35.65;;;;;;;30.24;59.57;100431.70;1698937;82;20978;-50
2021/06/23 10:37:39;;;;;;;14.43;9.50;;;;;;;30.29;60.99;100436.00;1692396;82;21343;-47
2021/06/23 10:40:07;;;;;;;7.97;4.97;;;;;;;30.33;60.02;100435.86;1705035;82;20984;-42
2021/06/23 10:42:36;;;;;;;11.75;7.33;;;;;;;30.36;59.84;100442.28;1702739;82;21496;-46
2021/06/23 10:45:05;;;;;;;12.33;9.28;;;;;;;30.41;62.15;100449.33;1707269;82;20941;-48
2021/06/23 10:47:41;;;;;;;37.55;33.58;;;;;;;30.44;60.98;100447.21;1704993;82;21559;-49
2021/06/23 10:50:18;;;;;;;13.32;11.95;;;;;;;30.47;62.11;100454.50;1705804;82;21012;-45
2021/06/23 10:52:45;;;;;;;48.85;43.90;;;;;;;30.51;63.45;100452.98;1708013;82;20936;-45
2021/06/23 10:55:27;;;;;;;74.12;66.77;;;;;;;30.55;62.99;100454.77;1703755;82;20984;-46
2021/06/23 10:57:57;;;;;;;53.08;47.78;;;;;;;30.60;63.19;100449.45;1704791;82;22248;-46
2021/06/23 11:00:27;;;;;;;24.30;21.77;;;;;;;30.62;61.08;100449.53;1700887;82;20932;-46
2021/06/23 11:03:09;;;;;;;12.43;8.80;;;;;;;30.66;60.34;100446.33;1702125;82;20951;-48
2021/06/23 11:05:49;;;;;;;8.05;5.05;;;;;;;30.67;59.73;100441.13;1706423;82;20972;-47
2021/06/23 11:08:31;;;;;;;12.43;3.98;;;;;;;30.65;61.27;100438.62;1706540;82;20909;-46
2021/06/23 11:11:07;;;;;;;18.75;15.00;;;;;;;30.65;61.26;100449.63;1703675;82;20933;-46
2021/06/23 11:13:39;;;;;;;168.70;153.00;;;;;;;30.67;61.29;100448.88;1704770;82;20964;-43
2021/06/23 11:16:06;;;;;;;131.65;118.17;;;;;;;30.70;59.70;100459.42;1704645;82;21030;-46
2021/06/23 11:18:39;;;;;;;107.45;97.90;;;;;;;30.72;59.45;100454.55;1710441;82;20917;-45
2021/06/23 11:21:21;;;;;;;748.13;681.73;;;;;;;30.77;59.94;100458.84;1708315;83;20989;-45
2021/06/23 11:23:55;;;;;;;341.82;314.38;;;;;;;30.81;58.27;100448.23;1707435;82;21465;-44
2021/06/23 11:26:30;;;;;;;97.53;89.37;;;;;;;30.83;57.94;100446.97;1700765;82;21004;-45
2021/06/23 11:29:14;;;;;;;37.40;33.65;;;;;;;30.86;59.09;100437.42;1708451;82;20948;-46
2021/06/23 11:31:49;;;;;;;24.92;17.57;;;;;;;30.89;57.25;100445.22;1707519;82;21003;-44
2021/06/23 11:34:40;;;;;;;19.05;9.30;;;;;;;30.93;59.22;100445.63;1703543;82;20928;-42
2021/06/23 11:37:16;;;;;;;15.13;6.92;;;;;;;30.97;57.14;100439.97;1703578;82;20956;-42
2021/06/23 11:39:43;;;;;;;17.32;6.33;;;;;;;30.99;55.61;100435.92;1703452;82;20994;-43
2021/06/23 11:42:11;;;;;;;12.45;4.45;;;;;;;31.01;55.14;100435.71;1707502;82;21020;-43
2021/06/23 11:44:43;;;;;;;16.82;4.78;;;;;;;31.01;55.50;100431.58;1704697;82;20999;-43
2021/06/23 11:47:16;;;;;;;15.93;5.12;;;;;;;30.99;54.92;100431.80;1706204;82;21016;-43
2021/06/23 11:52:22;;;;;;;15.15;5.35;;;;;;;30.99;56.04;100431.80;1785770;78;22848;-42
2021/06/23 11:54:49;;;;;;;20.00;5.40;;;;;;;30.95;57.88;100431.13;1751543;80;20947;-43